Time;durP1;ratioP1;P1;durP2;ratioP2;P2;SDS_P1;SDS_P2;PMS_P1;PMS_P2;Temp;Humidity;BMP_temperature;BMP_pressure;BME280_temperature;BME280_humidity;BME280_pressure;Samples;Min_cycle;Max_cycle;Signal;HPM_P1;HPM_P2
2024/01/22 00:01:25;;;;;;;19.60;15.20;;;;;;;20.13;22.25;103048.36;103653;1280;62571;-80
2024/01/22 00:03:50;;;;;;;21.40;15.40;;;;;;;20.13;22.24;103048.02;103739;1282;62194;-80
2024/01/22 00:06:16;;;;;;;20.40;15.00;;;;;;;20.12;22.16;103046.41;103561;1287;62190;-82
2024/01/22 00:08:42;;;;;;;22.60;16.30;;;;;;;20.12;22.26;103044.82;103625;1285;75093;-80
2024/01/22 00:11:07;;;;;;;19.00;15.00;;;;;;;20.12;22.17;103042.13;103829;1280;62254;-80
2024/01/22 00:13:33;;;;;;;20.40;15.20;;;;;;;20.11;22.17;103045.36;103714;1280;62222;-80
2024/01/22 00:15:59;;;;;;;22.00;15.90;;;;;;;20.12;22.10;103048.22;103551;1287;62271;-80
2024/01/22 00:18:25;;;;;;;19.10;15.60;;;;;;;20.12;22.14;103049.11;104094;1280;63357;-80
2024/01/22 00:20:51;;;;;;;21.60;16.00;;;;;;;20.11;22.18;103043.93;103818;1280;62095;-81
2024/01/22 00:23:16;;;;;;;20.50;15.70;;;;;;;20.11;22.16;103046.98;103208;1285;62150;-81
2024/01/22 00:25:42;;;;;;;22.60;15.80;;;;;;;20.11;22.05;103045.02;103773;1283;62155;-80
2024/01/22 00:28:08;;;;;;;20.50;15.60;;;;;;;20.11;22.11;103044.84;103680;1280;63336;-81
2024/01/22 00:30:35;;;;;;;21.10;16.00;;;;;;;20.11;21.94;103041.09;103587;1286;62220;-81
2024/01/22 00:33:01;;;;;;;21.90;16.30;;;;;;;20.10;22.03;103043.59;103612;1280;62196;-80
2024/01/22 00:35:27;;;;;;;21.40;15.80;;;;;;;20.10;22.10;103042.89;103917;1280;62644;-80
2024/01/22 00:37:53;;;;;;;22.00;16.30;;;;;;;20.10;22.05;103034.86;103728;1280;62652;-81
2024/01/22 00:40:19;;;;;;;23.40;17.00;;;;;;;20.10;22.02;103036.82;103714;1280;62479;-81
2024/01/22 00:42:44;;;;;;;23.60;17.40;;;;;;;20.10;22.02;103032.16;104197;1280;62229;-79
2024/01/22 00:45:11;;;;;;;22.40;16.20;;;;;;;20.09;22.13;103034.34;103328;1286;62109;-80
2024/01/22 00:47:36;;;;;;;25.10;17.80;;;;;;;20.10;22.08;103030.76;103718;1280;62199;-81
2024/01/22 00:50:03;;;;;;;22.80;16.90;;;;;;;20.09;22.00;103025.04;103627;1280;63001;-80
2024/01/22 00:52:29;;;;;;;23.20;17.40;;;;;;;20.09;22.10;103022.19;103796;1280;62776;-80
2024/01/22 00:54:55;;;;;;;23.90;17.30;;;;;;;20.10;21.97;103021.45;103689;1285;62193;-80
2024/01/22 00:57:20;;;;;;;22.50;17.30;;;;;;;20.09;22.06;103022.19;103682;1280;62234;-81
2024/01/22 00:59:47;;;;;;;23.20;17.50;;;;;;;20.09;22.07;103025.23;103820;1285;62191;-80
2024/01/22 01:02:13;;;;;;;24.10;17.20;;;;;;;20.09;21.89;103028.98;103595;1280;62264;-81
2024/01/22 01:04:40;;;;;;;24.60;17.30;;;;;;;20.09;22.03;103031.86;103578;1280;76274;-80
2024/01/22 01:07:06;;;;;;;24.30;17.10;;;;;;;20.08;22.15;103027.05;103606;1283;63440;-80
2024/01/22 01:09:31;;;;;;;22.60;17.20;;;;;;;20.09;21.98;103029.72;103556;1288;63284;-80
2024/01/22 01:11:57;;;;;;;24.00;17.20;;;;;;;20.09;22.04;103028.29;103568;1288;63462;-80
2024/01/22 01:14:24;;;;;;;22.20;17.00;;;;;;;20.08;22.06;103024.90;103619;1280;63360;-82
2024/01/22 01:16:50;;;;;;;24.50;17.60;;;;;;;20.08;22.01;103030.10;103741;1280;62277;-81
2024/01/22 01:19:16;;;;;;;24.70;18.00;;;;;;;20.08;21.82;103024.38;103676;1286;62286;-80
2024/01/22 01:21:42;;;;;;;24.10;16.80;;;;;;;20.08;21.97;103026.87;103588;1280;62231;-81
2024/01/22 01:24:10;;;;;;;26.20;17.70;;;;;;;20.08;22.00;103028.33;103653;1286;63365;-81
2024/01/22 01:26:41;;;;;;;25.40;18.00;;;;;;;20.08;21.94;103029.03;103890;1285;75171;-81
2024/01/22 01:29:07;;;;;;;24.50;17.30;;;;;;;20.07;21.95;103032.10;103660;1280;62168;-82
2024/01/22 01:31:33;;;;;;;24.70;17.90;;;;;;;20.07;21.91;103030.14;103722;1283;62174;-80
2024/01/22 01:33:59;;;;;;;24.70;18.00;;;;;;;20.06;21.90;103024.43;103559;1280;62189;-80
2024/01/22 01:36:25;;;;;;;25.70;18.10;;;;;;;20.07;21.84;103022.29;104021;1285;62191;-81
2024/01/22 01:38:50;;;;;;;23.90;17.10;;;;;;;20.06;21.90;103022.46;103877;1280;62736;-80
2024/01/22 01:41:16;;;;;;;22.70;17.40;;;;;;;20.07;21.85;103023.71;103630;1280;62704;-81
2024/01/22 01:43:42;;;;;;;24.60;17.00;;;;;;;20.06;21.92;103026.58;103677;1280;63320;-80
2024/01/22 01:46:08;;;;;;;22.80;17.00;;;;;;;20.06;21.82;103027.83;103968;1286;73454;-80
2024/01/22 01:48:33;;;;;;;25.10;17.00;;;;;;;20.06;21.87;103025.33;103757;1285;62298;-81
2024/01/22 01:51:00;;;;;;;23.70;16.90;;;;;;;20.06;21.88;103025.70;103711;1280;62194;-81
2024/01/22 01:53:27;;;;;;;24.90;18.10;;;;;;;20.06;21.88;103024.27;103639;1280;62075;-80
2024/01/22 01:55:52;;;;;;;25.10;17.20;;;;;;;20.06;21.95;103023.55;103987;1286;62254;-80
2024/01/22 01:58:18;;;;;;;25.20;18.10;;;;;;;20.06;22.01;103021.77;103638;1287;62241;-81
2024/01/22 02:00:45;;;;;;;23.90;17.70;;;;;;;20.05;21.94;103024.65;103739;1280;63387;-80
2024/01/22 02:03:11;;;;;;;24.40;17.90;;;;;;;20.05;21.93;103025.90;103780;1280;63462;-81
2024/01/22 02:05:37;;;;;;;25.40;18.10;;;;;;;20.05;21.83;103027.88;104066;1285;62606;-80
2024/01/22 02:08:03;;;;;;;25.20;18.10;;;;;;;20.05;21.94;103029.13;103757;1285;62170;-82
2024/01/22 02:10:29;;;;;;;25.00;17.50;;;;;;;20.04;21.97;103027.17;103674;1280;74981;-80
2024/01/22 02:12:56;;;;;;;22.90;16.70;;;;;;;20.05;21.93;103024.48;103728;1281;62412;-81
2024/01/22 02:15:22;;;;;;;22.90;17.20;;;;;;;20.04;21.92;103024.48;103993;1280;62200;-80
2024/01/22 02:17:47;;;;;;;23.70;17.20;;;;;;;20.04;21.93;103026.10;103593;1280;62277;-80
2024/01/22 02:20:16;;;;;;;22.90;16.10;;;;;;;20.04;21.86;103024.33;103689;1285;75335;-81
2024/01/22 02:22:42;;;;;;;23.50;16.70;;;;;;;20.04;21.93;103022.90;103667;1280;62166;-79
2024/01/22 02:25:08;;;;;;;23.00;16.70;;;;;;;20.04;21.84;103025.23;103681;1280;63475;-80
2024/01/22 02:27:34;;;;;;;23.50;16.50;;;;;;;20.04;21.86;103026.66;103714;1280;62208;-82
2024/01/22 02:30:01;;;;;;;22.40;16.50;;;;;;;20.03;21.92;103032.21;103482;1287;62200;-80
2024/01/22 02:32:26;;;;;;;23.90;16.60;;;;;;;20.03;21.83;103032.56;103717;1280;62116;-80
2024/01/22 02:34:52;;;;;;;23.30;17.10;;;;;;;20.03;21.90;103035.79;103835;1280;63368;-81
2024/01/22 02:37:18;;;;;;;21.90;16.00;;;;;;;20.03;21.90;103033.86;103633;1285;62188;-80
2024/01/22 02:39:44;;;;;;;24.30;16.90;;;;;;;20.03;21.88;103033.48;103618;1280;72509;-80
2024/01/22 02:42:10;;;;;;;21.70;16.50;;;;;;;20.02;21.88;103031.70;103712;1286;63261;-80
2024/01/22 02:44:36;;;;;;;24.30;16.40;;;;;;;20.02;21.83;103027.80;103807;1280;62106;-80
2024/01/22 02:47:02;;;;;;;23.50;16.20;;;;;;;20.02;21.79;103029.77;103614;1280;62184;-82
2024/01/22 02:49:29;;;;;;;22.20;16.30;;;;;;;20.02;21.83;103029.22;103721;1280;62091;-80
2024/01/22 02:51:55;;;;;;;22.80;16.30;;;;;;;20.02;21.87;103027.25;103700;1286;62281;-81
2024/01/22 02:54:20;;;;;;;20.40;15.80;;;;;;;20.01;21.88;103025.13;103709;1280;62178;-81
2024/01/22 02:56:46;;;;;;;22.70;16.20;;;;;;;20.02;21.80;103029.23;103610;1280;62293;-81
2024/01/22 02:59:12;;;;;;;22.40;16.20;;;;;;;20.02;21.88;103030.31;103800;1280;62206;-81
2024/01/22 03:01:37;;;;;;;22.10;15.90;;;;;;;20.01;21.76;103031.94;103741;1280;62130;-81
2024/01/22 03:04:03;;;;;;;21.40;16.30;;;;;;;20.00;21.89;103032.66;103692;1283;62688;-80
2024/01/22 03:06:32;;;;;;;23.30;16.20;;;;;;;20.00;21.79;103036.41;103514;1283;62089;-81
2024/01/22 03:08:57;;;;;;;23.70;15.90;;;;;;;20.00;21.72;103037.67;103966;1283;62174;-81
2024/01/22 03:11:23;;;;;;;21.00;15.30;;;;;;;20.00;21.77;103035.71;103723;1285;62255;-81
2024/01/22 03:13:49;;;;;;;19.90;14.70;;;;;;;20.00;21.75;103036.79;103517;1281;64216;-81
2024/01/22 03:16:15;;;;;;;19.80;15.50;;;;;;;20.00;21.86;103035.02;103704;1285;63372;-81
2024/01/22 03:18:40;;;;;;;20.10;15.10;;;;;;;19.99;21.71;103033.05;103992;1283;67341;-81
2024/01/22 03:21:07;;;;;;;20.00;14.80;;;;;;;19.99;21.83;103028.77;103816;1283;62062;-81
2024/01/22 03:23:33;;;;;;;18.40;14.70;;;;;;;19.99;21.75;103032.71;103634;1282;73511;-81
2024/01/22 03:25:59;;;;;;;19.70;14.70;;;;;;;19.98;21.80;103033.61;103578;1283;62215;-81
2024/01/22 03:28:25;;;;;;;19.90;14.60;;;;;;;19.98;21.89;103031.12;103544;1288;62422;-81
2024/01/22 03:30:50;;;;;;;21.60;14.70;;;;;;;19.98;21.70;103030.77;103582;1283;62117;-81
2024/01/22 03:33:17;;;;;;;18.60;13.50;;;;;;;19.98;21.74;103028.99;103562;1289;62226;-80
2024/01/22 03:35:43;;;;;;;19.00;13.90;;;;;;;19.97;21.71;103031.52;103560;1282;63228;-81
2024/01/22 03:38:09;;;;;;;19.30;13.90;;;;;;;19.98;21.79;103041.14;103700;1283;63378;-81
2024/01/22 03:40:35;;;;;;;19.30;13.80;;;;;;;19.97;21.83;103040.98;103491;1284;63019;-80
2024/01/22 03:43:01;;;;;;;17.80;14.20;;;;;;;19.97;21.66;103032.95;103911;1283;62909;-80
2024/01/22 03:45:26;;;;;;;18.90;14.20;;;;;;;19.97;21.55;103024.02;103504;1283;63201;-81
2024/01/22 03:47:52;;;;;;;19.30;13.70;;;;;;;19.97;21.73;103026.17;103588;1283;63400;-80
2024/01/22 03:50:18;;;;;;;17.80;13.90;;;;;;;19.96;21.63;103029.57;103734;1281;62174;-80
2024/01/22 03:52:45;;;;;;;19.40;13.80;;;;;;;19.97;21.69;103034.05;103811;1283;63423;-80
2024/01/22 03:55:10;;;;;;;17.60;13.50;;;;;;;19.96;21.57;103034.61;103493;1282;63337;-81
2024/01/22 03:57:36;;;;;;;17.30;13.20;;;;;;;19.96;21.67;103035.83;103605;1287;62135;-81
2024/01/22 04:00:03;;;;;;;17.30;13.50;;;;;;;19.96;21.70;103037.09;103718;1282;76262;-80
2024/01/22 04:02:32;;;;;;;17.90;13.30;;;;;;;19.95;21.59;103033.36;103667;1282;62108;-81
2024/01/22 04:04:58;;;;;;;16.20;13.20;;;;;;;19.96;21.71;103035.48;103636;1282;62184;-81
2024/01/22 04:07:24;;;;;;;17.90;13.20;;;;;;;19.95;21.71;103033.19;103984;1282;63403;-80
2024/01/22 04:09:50;;;;;;;17.40;13.70;;;;;;;19.96;21.68;103034.95;103369;1282;63397;-81
2024/01/22 04:12:16;;;;;;;17.30;13.30;;;;;;;19.95;21.72;103039.98;103394;1282;62190;-81
2024/01/22 04:14:41;;;;;;;17.90;13.50;;;;;;;19.96;21.67;103037.11;103876;1282;62124;-81
2024/01/22 04:17:07;;;;;;;16.20;13.00;;;;;;;19.96;21.63;103033.90;103561;1288;62191;-81
2024/01/22 04:19:33;;;;;;;17.10;13.40;;;;;;;19.95;21.72;103033.91;103581;1283;62268;-81
2024/01/22 04:21:58;;;;;;;17.20;14.00;;;;;;;19.95;21.78;103042.85;103597;1285;75275;-79
2024/01/22 04:24:24;;;;;;;17.50;12.90;;;;;;;19.95;21.55;103040.17;103522;1282;62102;-81
2024/01/22 04:26:50;;;;;;;16.80;13.30;;;;;;;19.94;21.61;103041.80;103756;1283;62187;-81
2024/01/22 04:29:16;;;;;;;17.90;13.50;;;;;;;19.94;21.64;103040.18;103487;1282;62095;-80
2024/01/22 04:31:42;;;;;;;22.70;13.10;;;;;;;19.94;21.83;103040.20;103511;1288;62191;-81
2024/01/22 04:34:07;;;;;;;21.60;13.10;;;;;;;19.92;21.82;103038.26;103492;1282;63398;-81
2024/01/22 04:36:33;;;;;;;21.00;13.90;;;;;;;19.92;21.96;103044.17;103322;1282;62111;-81
2024/01/22 04:38:59;;;;;;;19.70;14.30;;;;;;;19.92;22.23;103049.54;103434;1282;62402;-80
2024/01/22 04:41:25;;;;;;;23.50;15.40;;;;;;;19.91;22.18;103051.16;103285;1283;63905;-80
2024/01/22 04:43:51;;;;;;;19.40;14.70;;;;;;;19.90;22.28;103053.52;103619;1283;62531;-81
2024/01/22 04:46:16;;;;;;;22.20;16.00;;;;;;;19.89;22.35;103054.09;103768;1283;62457;-81
2024/01/22 04:48:42;;;;;;;22.60;15.40;;;;;;;19.88;22.38;103053.06;103648;1282;63087;-81
2024/01/22 04:51:08;;;;;;;20.30;15.30;;;;;;;19.86;22.50;103060.80;103539;1282;62245;-81
2024/01/22 04:53:35;;;;;;;22.00;15.90;;;;;;;19.85;22.41;103066.73;103611;1285;62197;-81
2024/01/22 04:56:01;;;;;;;23.40;16.70;;;;;;;19.84;22.62;103065.68;103577;1284;75203;-81
2024/01/22 04:58:26;;;;;;;22.30;16.60;;;;;;;19.83;22.49;103067.70;103418;1283;62210;-81
2024/01/22 05:00:52;;;;;;;24.60;17.50;;;;;;;19.80;22.58;103072.23;103605;1282;62238;-80
2024/01/22 05:03:18;;;;;;;21.40;16.20;;;;;;;19.78;22.56;103076.56;103590;1283;62710;-80
2024/01/22 05:05:44;;;;;;;26.80;18.10;;;;;;;19.75;22.54;103069.52;103963;1283;63404;-80
2024/01/22 05:08:11;;;;;;;26.60;18.60;;;;;;;19.70;22.26;103076.81;103680;1283;62156;-81
2024/01/22 05:10:37;;;;;;;26.10;18.80;;;;;;;19.59;22.14;103075.16;103714;1283;62276;-80
2024/01/22 05:13:03;;;;;;;25.10;18.30;;;;;;;19.47;22.16;103077.45;104316;1283;62121;-78
2024/01/22 05:15:29;;;;;;;26.40;19.30;;;;;;;19.39;21.96;103077.51;103989;1282;62110;-79
2024/01/22 05:17:55;;;;;;;25.80;18.60;;;;;;;19.32;22.01;103069.67;103950;1282;62859;-79
2024/01/22 05:20:21;;;;;;;25.30;17.50;;;;;;;19.25;22.01;103073.06;103685;1286;62367;-79
2024/01/22 05:22:46;;;;;;;26.20;17.70;;;;;;;19.23;22.08;103080.08;103814;1283;62600;-78
2024/01/22 05:25:12;;;;;;;24.80;18.20;;;;;;;19.26;22.13;103078.92;103623;1283;62190;-79
2024/01/22 05:27:41;;;;;;;25.50;18.40;;;;;;;19.29;22.07;103075.84;103632;1283;63485;-79
2024/01/22 05:30:08;;;;;;;23.30;17.30;;;;;;;19.30;21.96;103066.85;103784;1280;62737;-79
2024/01/22 05:32:34;;;;;;;23.40;17.50;;;;;;;19.31;21.95;103071.30;103781;1283;62200;-81
2024/01/22 05:35:00;;;;;;;24.80;18.00;;;;;;;19.31;21.96;103076.11;103945;1283;63265;-80
2024/01/22 05:37:25;;;;;;;26.60;17.70;;;;;;;19.31;22.00;103065.77;103933;1283;62290;-80
2024/01/22 05:39:51;;;;;;;24.00;17.50;;;;;;;19.30;22.02;103066.87;104140;1283;62201;-79
2024/01/22 05:42:18;;;;;;;25.10;17.40;;;;;;;19.28;22.01;103070.67;103813;1285;62203;-81
2024/01/22 05:44:44;;;;;;;26.40;17.60;;;;;;;19.22;21.99;103070.48;104034;1283;62213;-81
2024/01/22 05:47:09;;;;;;;27.00;18.60;;;;;;;19.14;22.07;103066.97;104781;1283;63842;-81
2024/01/22 05:49:35;;;;;;;26.60;19.70;;;;;;;19.03;22.19;103073.30;104859;1283;62193;-79
2024/01/22 05:52:01;;;;;;;29.10;20.40;;;;;;;18.89;22.03;103069.38;104647;1284;62066;-80
2024/01/22 05:54:28;;;;;;;27.50;19.00;;;;;;;18.81;22.21;103066.00;104703;1282;62017;-82
2024/01/22 05:56:54;;;;;;;27.60;19.10;;;;;;;18.76;22.17;103066.31;105040;1281;62091;-81
2024/01/22 05:59:20;;;;;;;25.60;18.80;;;;;;;18.72;22.23;103071.40;105089;1283;62295;-80
2024/01/22 06:01:45;;;;;;;25.30;18.10;;;;;;;18.69;22.37;103070.95;105553;1283;62062;-80
2024/01/22 06:04:11;;;;;;;23.90;17.70;;;;;;;18.67;22.40;103071.70;105512;1282;62366;-80
2024/01/22 06:06:37;;;;;;;25.60;18.20;;;;;;;18.67;22.56;103074.56;105493;1286;62094;-82
2024/01/22 06:09:03;;;;;;;23.00;17.10;;;;;;;18.68;22.49;103077.04;105463;1281;72203;-81
2024/01/22 06:11:30;;;;;;;26.20;17.90;;;;;;;18.68;22.62;103068.29;105386;1282;62101;-80
2024/01/22 06:13:56;;;;;;;26.30;19.60;;;;;;;18.69;22.57;103068.45;105077;1284;62564;-81
2024/01/22 06:16:22;;;;;;;27.20;18.90;;;;;;;18.71;22.70;103071.06;105643;1282;62178;-81
2024/01/22 06:18:48;;;;;;;28.00;19.60;;;;;;;18.73;22.82;103066.55;104806;1285;62002;-80
2024/01/22 06:21:13;;;;;;;29.90;19.40;;;;;;;18.78;23.29;103069.47;104880;1283;62110;-80
2024/01/22 06:23:41;;;;;;;27.30;18.90;;;;;;;18.81;23.38;103064.94;104902;1282;62024;-81
2024/01/22 06:26:06;;;;;;;28.80;19.40;;;;;;;18.83;23.72;103066.29;104722;1280;62133;-79
2024/01/22 06:28:32;;;;;;;26.10;18.70;;;;;;;18.85;23.77;103068.73;104676;1281;62201;-80
2024/01/22 06:30:58;;;;;;;27.10;18.50;;;;;;;18.87;23.87;103072.45;104936;1283;62197;-80
2024/01/22 06:33:24;;;;;;;26.40;19.10;;;;;;;18.89;23.87;103075.63;105266;1283;73892;-80
2024/01/22 06:35:50;;;;;;;28.50;18.70;;;;;;;18.92;24.05;103075.56;105163;1283;62197;-79
2024/01/22 06:38:18;;;;;;;25.70;17.00;;;;;;;18.95;23.93;103073.17;105191;1283;61193;-81
2024/01/22 06:40:45;;;;;;;25.20;17.00;;;;;;;18.97;23.95;103073.48;105020;1283;72502;-79
2024/01/22 06:43:11;;;;;;;23.10;17.90;;;;;;;18.99;24.04;103070.22;105227;1281;75320;-80
2024/01/22 06:45:37;;;;;;;23.20;16.30;;;;;;;19.01;23.93;103068.52;104996;1281;62945;-79
2024/01/22 06:48:03;;;;;;;23.40;17.80;;;;;;;19.05;23.68;103066.67;105280;1282;62104;-80
2024/01/22 06:50:28;;;;;;;26.10;16.90;;;;;;;19.06;23.70;103070.56;105050;1288;62139;-79
2024/01/22 06:52:54;;;;;;;27.00;18.10;;;;;;;19.06;23.61;103075.18;105026;1283;62178;-79
2024/01/22 06:55:20;;;;;;;26.90;18.20;;;;;;;19.04;23.53;103075.60;105377;1282;63644;-80
2024/01/22 06:57:47;;;;;;;25.50;17.70;;;;;;;19.00;23.52;103071.08;105425;1285;60441;-80
2024/01/22 07:00:15;;;;;;;26.20;17.50;;;;;;;19.01;23.38;103071.05;105575;1282;62164;-80
2024/01/22 07:02:43;;;;;;;23.50;17.10;;;;;;;19.03;23.51;103073.67;105478;1282;71465;-79
2024/01/22 07:05:10;;;;;;;25.20;16.90;;;;;;;19.06;23.51;103070.00;105426;1283;75248;-81
2024/01/22 07:07:37;;;;;;;25.10;17.00;;;;;;;19.08;23.59;103071.92;105545;1282;61448;-79
2024/01/22 07:10:10;;;;;;;26.70;17.40;;;;;;;19.11;23.54;103072.55;105631;1282;61941;-80
2024/01/22 07:12:37;;;;;;;21.00;15.80;;;;;;;19.16;23.63;103074.76;105529;1282;73215;-80
2024/01/22 07:15:04;;;;;;;25.40;16.80;;;;;;;19.18;23.63;103074.33;105358;1285;75290;-79
2024/01/22 07:17:30;;;;;;;22.30;16.50;;;;;;;19.21;23.61;103077.11;105162;1283;62078;-80
2024/01/22 07:19:56;;;;;;;22.50;16.20;;;;;;;19.24;23.69;103085.22;105182;1283;62149;-79
2024/01/22 07:22:22;;;;;;;22.20;15.60;;;;;;;19.27;23.73;103089.45;105449;1282;62113;-80
2024/01/22 07:24:48;;;;;;;25.50;16.80;;;;;;;19.30;23.63;103080.42;105529;1282;60407;-80
2024/01/22 07:27:14;;;;;;;24.30;16.40;;;;;;;19.33;23.67;103086.78;105553;1283;61675;-79
2024/01/22 07:29:40;;;;;;;24.60;16.80;;;;;;;19.35;23.68;103087.78;105326;1282;62160;-81
2024/01/22 07:32:06;;;;;;;26.00;16.70;;;;;;;19.38;23.67;103087.35;105154;1280;60315;-79
2024/01/22 07:34:32;;;;;;;23.60;16.60;;;;;;;19.41;23.66;103088.70;105247;1281;62002;-80
2024/01/22 07:36:58;;;;;;;26.80;17.20;;;;;;;19.43;23.66;103087.58;105202;1282;60546;-80
2024/01/22 07:39:23;;;;;;;24.00;17.60;;;;;;;19.45;23.74;103086.80;104503;1283;624436;-79
2024/01/22 07:41:49;;;;;;;24.20;16.70;;;;;;;19.47;23.84;103082.64;105340;1280;62097;-79
2024/01/22 07:44:15;;;;;;;24.90;16.40;;;;;;;19.49;23.90;103085.61;105140;1283;62159;-79
2024/01/22 07:46:40;;;;;;;24.70;16.80;;;;;;;19.51;23.72;103090.55;105256;1282;62164;-79
2024/01/22 07:49:07;;;;;;;24.70;17.60;;;;;;;19.53;23.88;103090.15;105086;1282;60457;-80
2024/01/22 07:51:34;;;;;;;25.60;17.20;;;;;;;19.54;23.86;103091.18;105201;1283;62135;-80
2024/01/22 07:54:01;;;;;;;26.90;17.40;;;;;;;19.56;23.89;103091.31;105415;1282;62146;-80
2024/01/22 07:56:28;;;;;;;27.30;18.30;;;;;;;19.56;24.00;103096.29;105851;1283;62119;-80
2024/01/22 07:58:53;;;;;;;30.10;17.50;;;;;;;19.55;24.10;103097.77;105740;1282;60534;-79
2024/01/22 08:01:20;;;;;;;25.80;17.10;;;;;;;19.54;24.15;103093.16;105478;1282;62146;-79
2024/01/22 08:03:45;;;;;;;31.40;16.80;;;;;;;19.54;24.29;103097.43;104930;1288;62192;-80
2024/01/22 08:06:11;;;;;;;25.60;17.00;;;;;;;19.55;24.47;103102.93;105216;1287;62182;-79
2024/01/22 08:08:39;;;;;;;25.80;15.60;;;;;;;19.57;24.51;103104.30;105237;1285;76176;-79
2024/01/22 08:11:05;;;;;;;25.70;16.00;;;;;;;19.58;24.43;103100.18;105022;1285;62073;-79
2024/01/22 08:13:30;;;;;;;22.90;16.60;;;;;;;19.60;24.49;103093.88;104992;1285;62170;-80
2024/01/22 08:15:56;;;;;;;26.30;16.00;;;;;;;19.62;24.59;103092.94;105175;1285;62098;-80
2024/01/22 08:18:22;;;;;;;30.50;16.90;;;;;;;19.64;24.70;103098.23;105014;1285;62096;-79
2024/01/22 08:20:48;;;;;;;25.60;16.50;;;;;;;19.66;24.59;103103.90;104826;1286;62901;-80
2024/01/22 08:23:14;;;;;;;23.70;15.40;;;;;;;19.67;24.43;103099.58;105949;1285;60702;-79
2024/01/22 08:25:40;;;;;;;21.90;15.20;;;;;;;19.68;24.72;103103.48;104728;1285;62230;-79
2024/01/22 08:28:05;;;;;;;21.70;15.90;;;;;;;19.68;24.65;103102.39;104844;1285;72436;-82
2024/01/22 08:30:32;;;;;;;21.20;15.40;;;;;;;19.69;24.61;103097.73;104597;1285;62274;-82
2024/01/22 08:32:58;;;;;;;23.10;14.00;;;;;;;19.69;24.58;103091.10;105236;1285;62079;-80
2024/01/22 08:35:24;;;;;;;25.20;15.30;;;;;;;19.69;24.61;103094.69;105108;1281;62200;-81
2024/01/22 08:37:52;;;;;;;24.80;14.90;;;;;;;19.70;24.61;103099.14;105346;1282;60645;-81
2024/01/22 08:40:22;;;;;;;19.70;13.70;;;;;;;19.70;24.67;103096.08;105125;1283;62088;-81
2024/01/22 08:42:52;;;;;;;20.80;14.00;;;;;;;19.71;24.61;103096.95;105606;1281;62212;-82
2024/01/22 08:45:18;;;;;;;19.20;14.00;;;;;;;19.71;24.71;103101.77;105074;1281;62097;-81
2024/01/22 08:47:45;;;;;;;19.70;13.80;;;;;;;19.72;24.61;103105.33;105249;1282;62231;-82
2024/01/22 08:50:23;;;;;;;21.00;13.70;;;;;;;19.73;24.72;103101.55;104912;1290;76484;-81
2024/01/22 08:52:50;;;;;;;21.00;13.70;;;;;;;19.74;24.78;103102.95;105482;1282;60515;-82
2024/01/22 08:55:16;;;;;;;17.50;13.40;;;;;;;19.74;24.69;103107.23;105033;1285;62291;-81
2024/01/22 08:57:42;;;;;;;25.50;13.90;;;;;;;19.74;24.72;103105.60;105050;1285;62002;-83
2024/01/22 09:00:11;;;;;;;25.50;11.70;;;;;;;19.73;24.76;103092.42;105011;1283;62011;-83
2024/01/22 09:02:39;;;;;;;26.90;14.20;;;;;;;19.75;25.74;103094.88;105368;1283;62439;-80
2024/01/22 09:05:09;;;;;;;36.90;14.00;;;;;;;19.76;26.31;103100.20;105152;1283;62108;-81
2024/01/22 09:07:35;;;;;;;31.10;13.60;;;;;;;19.77;26.73;103094.79;105160;1281;72313;-81
2024/01/22 09:10:07;;;;;;;22.40;13.20;;;;;;;19.78;27.01;103095.49;104940;1282;62240;-81
2024/01/22 09:12:36;;;;;;;22.30;13.50;;;;;;;19.78;26.81;103095.50;105201;1281;62065;-82
2024/01/22 09:15:05;;;;;;;23.80;13.10;;;;;;;19.79;26.81;103099.92;104697;1281;61973;-81
2024/01/22 09:17:31;;;;;;;;;;;;;;;19.79;26.56;103102.61;105182;1281;72493;-81
2024/01/22 09:19:57;;;;;;;23.20;13.10;;;;;;;19.77;26.63;103101.59;105262;1283;62283;-81
2024/01/22 09:22:23;;;;;;;23.60;14.10;;;;;;;19.80;26.40;103100.81;104916;1283;62121;-81
2024/01/22 09:24:49;;;;;;;20.10;13.80;;;;;;;19.81;26.33;103096.69;104891;1282;62169;-81
2024/01/22 09:27:15;;;;;;;20.90;14.10;;;;;;;19.81;26.32;103091.14;105430;1282;60018;-81
2024/01/22 09:29:42;;;;;;;20.80;13.70;;;;;;;19.83;26.00;103090.74;105541;1285;62191;-81
2024/01/22 09:32:09;;;;;;;19.10;13.50;;;;;;;19.84;25.98;103089.11;105254;1283;62197;-81
2024/01/22 09:34:38;;;;;;;18.50;13.00;;;;;;;19.85;25.87;103085.70;106934;1281;60149;-79
2024/01/22 09:37:04;;;;;;;21.40;14.30;;;;;;;19.86;25.83;103081.55;106989;1282;74117;-79
2024/01/22 09:39:30;;;;;;;22.40;13.10;;;;;;;19.87;25.78;103086.34;105465;1282;61339;-79
2024/01/22 09:41:59;;;;;;;17.90;13.40;;;;;;;19.87;25.59;103087.73;105176;1282;62176;-79
2024/01/22 09:44:34;;;;;;;22.10;13.90;;;;;;;19.88;25.51;103083.95;105217;1280;60740;-79
2024/01/22 09:46:59;;;;;;;19.20;13.60;;;;;;;19.88;25.46;103092.20;105316;1285;73303;-81
2024/01/22 09:49:25;;;;;;;21.20;14.80;;;;;;;19.85;25.49;103090.48;105299;1282;62148;-80
2024/01/22 09:51:51;;;;;;;30.70;16.10;;;;;;;19.82;25.41;103089.52;105221;1283;62044;-81
2024/01/22 09:54:18;;;;;;;32.80;20.30;;;;;;;19.75;25.66;103080.41;105398;1281;62209;-81
2024/01/22 09:56:52;;;;;;;27.20;16.80;;;;;;;19.60;25.68;103072.09;105634;1280;62277;-80
2024/01/22 09:59:19;;;;;;;30.30;16.90;;;;;;;19.53;26.18;103074.27;106699;1282;75152;-81
2024/01/22 10:01:46;;;;;;;32.20;18.30;;;;;;;19.49;26.45;103072.04;106525;1280;61478;-81
2024/01/22 10:04:12;;;;;;;27.20;17.30;;;;;;;19.42;26.48;103067.06;106840;1282;61055;-80
2024/01/22 10:06:41;;;;;;;30.20;16.50;;;;;;;19.33;26.50;103059.45;106797;1283;72603;-82
2024/01/22 10:09:07;;;;;;;24.80;17.40;;;;;;;19.27;26.38;103057.84;106866;1282;60305;-80
2024/01/22 10:11:33;;;;;;;34.20;20.30;;;;;;;19.21;26.28;103058.16;106565;1282;60380;-82
2024/01/22 10:13:59;;;;;;;33.10;17.50;;;;;;;19.13;26.30;103064.30;106777;1283;59940;-81
2024/01/22 10:16:31;;;;;;;29.60;17.00;;;;;;;19.08;26.47;103061.77;106523;1285;61237;-82
2024/01/22 10:19:05;;;;;;;24.30;17.60;;;;;;;19.05;26.63;103065.39;106491;1281;76336;-80
2024/01/22 10:21:32;;;;;;;26.40;17.30;;;;;;;19.04;26.42;103061.48;106694;1283;60705;-81
2024/01/22 10:23:59;;;;;;;29.20;17.20;;;;;;;19.07;26.51;103046.80;105460;1283;62097;-80
2024/01/22 10:26:24;;;;;;;25.30;16.30;;;;;;;19.09;26.37;103046.02;105625;1283;73254;-80
2024/01/22 10:28:51;;;;;;;28.50;16.80;;;;;;;19.12;26.42;103048.08;105844;1282;62113;-80
2024/01/22 10:31:16;;;;;;;23.30;16.30;;;;;;;19.17;26.27;103047.42;105544;1282;62100;-82
2024/01/22 10:33:42;;;;;;;27.70;16.30;;;;;;;19.19;26.46;103044.14;105368;1283;62152;-82
2024/01/22 10:36:19;;;;;;;27.90;16.10;;;;;;;19.22;26.59;103047.27;105506;1285;62132;-81
2024/01/22 10:38:46;;;;;;;21.00;15.20;;;;;;;19.26;26.72;103047.68;105099;1283;74068;-79
2024/01/22 10:41:22;;;;;;;24.10;15.10;;;;;;;19.29;26.96;103043.49;105278;1284;61938;-80
2024/01/22 10:43:49;;;;;;;24.80;15.10;;;;;;;19.32;27.12;103038.59;105572;1282;63298;-81
2024/01/22 10:46:15;;;;;;;22.70;15.00;;;;;;;19.36;27.11;103034.01;105592;1283;72630;-81
2024/01/22 10:48:42;;;;;;;22.30;15.10;;;;;;;19.40;27.18;103029.08;105458;1282;62402;-80
2024/01/22 10:51:07;;;;;;;26.80;15.90;;;;;;;19.43;27.18;103029.70;105309;1283;62043;-78
2024/01/22 10:53:34;;;;;;;25.90;15.50;;;;;;;19.46;27.26;103022.86;105467;1283;62162;-81
2024/01/22 10:56:05;;;;;;;24.70;14.40;;;;;;;19.49;27.50;103012.05;105213;1283;62263;-83
2024/01/22 10:58:37;;;;;;;25.10;14.80;;;;;;;19.49;27.35;103015.60;105352;1283;75522;-82